createdAt,value
2023-04-19T00:02:13.938Z,99588.50
2023-04-19T00:04:41.938Z,99558.88
2023-04-19T00:07:08.842Z,99557.47
2023-04-19T00:09:35.612Z,99583.56
2023-04-19T00:12:03.227Z,99569.69
2023-04-19T00:14:30.046Z,99513.13
2023-04-19T00:16:56.985Z,99578.53
2023-04-19T00:19:23.739Z,99578.06
2023-04-19T00:21:50.819Z,99559.38
2023-04-19T00:24:18.171Z,99580.78
2023-04-19T00:26:44.909Z,99587.81
2023-04-19T00:29:11.843Z,99581.81
2023-04-19T00:31:39.966Z,99580.09
2023-04-19T00:34:07.222Z,99501.03
2023-04-19T00:36:34.124Z,99573.72
2023-04-19T00:39:01.093Z,99591.41
2023-04-19T00:41:27.814Z,99588.09
2023-04-19T00:43:54.724Z,99563.94
2023-04-19T00:46:22.006Z,99548.66
2023-04-19T00:48:48.958Z,99585.25
2023-04-19T00:51:16.023Z,99569.66
2023-04-19T00:53:43.062Z,99572.09
2023-04-19T00:56:09.903Z,99551.69
2023-04-19T00:58:38.055Z,99568.59
2023-04-19T01:01:04.843Z,99550.47
2023-04-19T01:03:31.830Z,99559.56
2023-04-19T01:05:58.816Z,99559.44
2023-04-19T01:08:25.663Z,99513.94
2023-04-19T01:10:52.406Z,99490.66
2023-04-19T01:13:19.221Z,99479.00
2023-04-19T01:15:46.252Z,99583.03
2023-04-19T01:18:14.158Z,99569.38
2023-04-19T01:20:41.120Z,99570.69
2023-04-19T01:23:11.787Z,99401.63
2023-04-19T01:25:39.192Z,99483.72
2023-04-19T01:28:06.498Z,99514.97
2023-04-19T01:30:33.322Z,99550.84
2023-04-19T01:33:00.244Z,99547.78
2023-04-19T01:35:27.179Z,99554.63
2023-04-19T01:37:56.344Z,99542.47
2023-04-19T01:40:24.957Z,99534.91
2023-04-19T01:42:51.997Z,99550.69
2023-04-19T01:45:18.837Z,99514.63
2023-04-19T01:47:45.630Z,99553.13
2023-04-19T01:50:12.428Z,99555.94
2023-04-19T01:52:39.238Z,99528.22
2023-04-19T01:55:06.188Z,99543.09
2023-04-19T01:57:32.999Z,99557.09
2023-04-19T01:59:59.857Z,99524.09
2023-04-19T02:02:27.164Z,99497.38
2023-04-19T02:04:54.236Z,99522.56
2023-04-19T02:07:21.102Z,99561.22
2023-04-19T02:09:48.041Z,99503.97
2023-04-19T02:12:14.919Z,99549.19
2023-04-19T02:14:41.803Z,99547.28
2023-04-19T02:17:08.659Z,99512.59
2023-04-19T02:19:35.507Z,99543.78
2023-04-19T02:22:02.251Z,99539.84
2023-04-19T02:24:28.971Z,99550.66
2023-04-19T02:26:55.831Z,99551.34
2023-04-19T02:29:22.730Z,99542.28
2023-04-19T02:31:50.290Z,99537.19
2023-04-19T02:34:17.380Z,99542.81
2023-04-19T02:36:44.354Z,99557.66
2023-04-19T02:39:11.073Z,99556.22
2023-04-19T02:41:46.999Z,99556.44
2023-04-19T02:44:13.788Z,99549.09
2023-04-19T02:46:40.888Z,99563.31
2023-04-19T02:49:07.772Z,99556.03
2023-04-19T02:51:34.546Z,99554.34
2023-04-19T02:54:01.342Z,99537.72
2023-04-19T02:56:28.268Z,99551.06
2023-04-19T02:58:55.242Z,99551.06
2023-04-19T03:01:22.110Z,99512.78
2023-04-19T03:03:49.234Z,99548.03
2023-04-19T03:06:17.059Z,99523.72
2023-04-19T03:08:43.851Z,99503.09
2023-04-19T03:11:11.783Z,99493.19
2023-04-19T03:13:39.830Z,99528.72
2023-04-19T03:16:07.410Z,99537.44
2023-04-19T03:18:34.482Z,99497.41
2023-04-19T03:21:03.563Z,99537.38
2023-04-19T03:23:30.326Z,99554.97
2023-04-19T03:25:57.457Z,99531.72
2023-04-19T03:28:24.194Z,99535.19
2023-04-19T03:30:50.937Z,99542.81
2023-04-19T03:33:18.878Z,99490.81
2023-04-19T03:35:45.845Z,99492.63
2023-04-19T03:38:12.627Z,99530.59
2023-04-19T03:40:39.407Z,99493.16
2023-04-19T03:43:06.133Z,99539.66
2023-04-19T03:45:32.896Z,99519.72
2023-04-19T03:48:01.387Z,99504.84
2023-04-19T03:50:29.633Z,99558.50
2023-04-19T03:52:56.748Z,99501.84
2023-04-19T03:55:23.593Z,99556.00
2023-04-19T03:57:50.423Z,99531.84
2023-04-19T04:00:18.602Z,99554.44
2023-04-19T04:02:45.680Z,99546.22
2023-04-19T04:05:12.789Z,99495.00
2023-04-19T04:07:39.799Z,99569.16
2023-04-19T04:10:07.289Z,99544.53
2023-04-19T04:12:34.029Z,99572.44
2023-04-19T04:15:01.037Z,99503.81
2023-04-19T04:17:27.816Z,99533.00
2023-04-19T04:19:54.646Z,99538.09
2023-04-19T04:22:21.714Z,99531.34
2023-04-19T04:24:49.333Z,99521.78
2023-04-19T04:27:20.469Z,99531.03
2023-04-19T04:29:47.656Z,99570.16
2023-04-19T04:32:15.731Z,99555.34
2023-04-19T04:34:43.156Z,99574.22
2023-04-19T04:37:10.061Z,99556.69
2023-04-19T04:39:39.456Z,99542.91
2023-04-19T04:42:08.929Z,99522.09
2023-04-19T04:44:36.444Z,99506.41
2023-04-19T04:47:03.300Z,99535.66
2023-04-19T04:49:30.588Z,99520.19
2023-04-19T04:51:57.384Z,99395.72
2023-04-19T04:54:24.775Z,99563.16
2023-04-19T04:56:51.779Z,99580.56
2023-04-19T04:59:19.158Z,99467.41
2023-04-19T05:01:46.380Z,99572.16
2023-04-19T05:04:13.293Z,99542.59
2023-04-19T05:06:41.529Z,99526.69
2023-04-19T05:09:08.350Z,99532.97
2023-04-19T05:11:35.114Z,99517.63
2023-04-19T05:14:02.756Z,99568.34
2023-04-19T05:16:29.666Z,99574.16
2023-04-19T05:18:56.685Z,99491.84
2023-04-19T05:21:23.649Z,99593.81
2023-04-19T05:23:53.923Z,99589.69
2023-04-19T05:26:20.756Z,99572.47
2023-04-19T05:28:47.743Z,99585.53
2023-04-19T05:31:14.678Z,99554.47
2023-04-19T05:33:41.664Z,99597.44
2023-04-19T05:36:09.051Z,99544.06
2023-04-19T05:38:35.960Z,99530.00
2023-04-19T05:41:03.747Z,99409.34
2023-04-19T05:43:30.742Z,99563.38
2023-04-19T05:45:57.930Z,99500.38
2023-04-19T05:48:25.641Z,99606.31
2023-04-19T05:50:57.666Z,99602.22
2023-04-19T05:53:24.389Z,99602.69
2023-04-19T05:55:52.323Z,99604.84
2023-04-19T05:58:19.453Z,99616.06
2023-04-19T06:00:48.813Z,99584.34
2023-04-19T06:03:16.189Z,99617.59
2023-04-19T06:05:43.550Z,99622.50
2023-04-19T06:08:10.343Z,99614.25
2023-04-19T06:13:16.081Z,99578.50
2023-04-19T06:15:43.002Z,99615.50
2023-04-19T06:18:10.416Z,99601.06
2023-04-19T06:20:46.568Z,99631.81
2023-04-19T06:23:15.060Z,99601.91
2023-04-19T06:25:42.000Z,99637.81
2023-04-19T06:28:08.998Z,99636.88
2023-04-19T06:30:35.758Z,99622.50
2023-04-19T06:33:02.614Z,99592.28
2023-04-19T06:35:29.721Z,99644.72
2023-04-19T06:37:56.477Z,99636.63
2023-04-19T06:40:23.347Z,99644.06
2023-04-19T06:42:50.230Z,99648.16
2023-04-19T06:45:17.099Z,99596.59
2023-04-19T06:47:44.002Z,99587.19
2023-04-19T06:50:11.430Z,99637.38
2023-04-19T06:52:38.895Z,99654.03
2023-04-19T06:55:07.258Z,99661.06
2023-04-19T06:57:34.139Z,99597.34
2023-04-19T07:00:01.182Z,99620.03
2023-04-19T07:02:28.062Z,99667.81
2023-04-19T07:04:55.258Z,99671.50
2023-04-19T07:07:22.095Z,99657.41
2023-04-19T07:09:48.787Z,99670.03
2023-04-19T07:12:15.675Z,99665.47
2023-04-19T07:14:42.424Z,99671.66
2023-04-19T07:17:09.158Z,99658.91
2023-04-19T07:19:36.583Z,99660.78
2023-04-19T07:22:03.741Z,99628.41
2023-04-19T07:24:30.542Z,99665.53
2023-04-19T07:26:57.829Z,99648.56
2023-04-19T07:29:24.674Z,99644.59
2023-04-19T07:31:51.600Z,99621.97
2023-04-19T07:34:18.643Z,99663.81
2023-04-19T07:36:45.503Z,99650.69
2023-04-19T07:39:13.673Z,99642.13
2023-04-19T07:41:40.653Z,99650.00
2023-04-19T07:44:07.447Z,99656.59
2023-04-19T07:46:34.480Z,99660.69
2023-04-19T07:49:01.592Z,99671.06
2023-04-19T07:51:28.517Z,99669.59
2023-04-19T07:53:55.563Z,99628.63
2023-04-19T07:56:22.483Z,99667.22
2023-04-19T07:59:04.487Z,99669.19
2023-04-19T08:01:35.170Z,99674.28
2023-04-19T08:04:02.139Z,99662.38
2023-04-19T08:06:30.741Z,99669.91
2023-04-19T08:08:57.815Z,99641.53
2023-04-19T08:11:25.539Z,99680.19
2023-04-19T08:14:06.190Z,99646.53
2023-04-19T08:19:05.718Z,99677.88
2023-04-19T08:21:40.645Z,99683.81
2023-04-19T08:24:08.425Z,99675.31
2023-04-19T08:26:35.571Z,99643.50
2023-04-19T08:29:02.562Z,99691.13
2023-04-19T08:31:29.553Z,99670.47
2023-04-19T08:33:57.148Z,99684.81
2023-04-19T08:36:35.939Z,99689.97
2023-04-19T08:39:12.525Z,99691.25
2023-04-19T08:41:48.086Z,99667.44
2023-04-19T08:44:25.337Z,99690.41
2023-04-19T08:47:01.303Z,99683.22
2023-04-19T08:49:28.669Z,99702.97
2023-04-19T08:51:55.848Z,99712.31
2023-04-19T08:54:22.583Z,99694.13
2023-04-19T08:56:49.499Z,99706.94
2023-04-19T08:59:19.674Z,99685.03
2023-04-19T09:01:47.014Z,99681.13
2023-04-19T09:04:31.749Z,99689.53
2023-04-19T09:07:00.896Z,99684.03
2023-04-19T09:09:37.258Z,99708.56
2023-04-19T09:12:18.401Z,99700.25
2023-04-19T09:17:17.205Z,99720.88
2023-04-19T09:19:48.504Z,99717.41
2023-04-19T09:22:15.384Z,99728.19
2023-04-19T09:27:12.595Z,99727.56
2023-04-19T09:29:39.804Z,99661.97
2023-04-19T09:32:06.712Z,99709.69
2023-04-19T09:34:33.719Z,99731.03
2023-04-19T09:37:22.808Z,99734.81
2023-04-19T09:39:59.833Z,99717.66
2023-04-19T09:43:05.441Z,99693.31
2023-04-19T09:45:46.086Z,99712.69
2023-04-19T09:48:13.378Z,99745.53
2023-04-19T09:50:59.016Z,99738.22
2023-04-19T09:53:48.636Z,99709.59
2023-04-19T09:56:15.494Z,99740.28
2023-04-19T09:58:49.623Z,99723.09
2023-04-19T10:01:19.472Z,99764.81
2023-04-19T10:03:46.795Z,99735.75
2023-04-19T10:06:40.004Z,99759.03
2023-04-19T10:09:04.568Z,99754.97
2023-04-19T10:11:39.195Z,99765.97
2023-04-19T10:14:08.138Z,99756.53
2023-04-19T10:16:35.779Z,99760.56
2023-04-19T10:19:10.675Z,99731.50
2023-04-19T10:21:37.559Z,99777.31
2023-04-19T10:24:05.016Z,99743.78
2023-04-19T10:26:31.965Z,99781.44
2023-04-19T10:28:59.154Z,99771.59
2023-04-19T10:31:26.703Z,99788.81
2023-04-19T10:33:53.771Z,99764.25
2023-04-19T10:36:21.361Z,99731.06
2023-04-19T10:38:49.584Z,99651.38
2023-04-19T10:41:18.296Z,99788.63
2023-04-19T10:44:09.838Z,99744.44
2023-04-19T10:46:38.649Z,99753.25
2023-04-19T10:49:06.010Z,99763.16
2023-04-19T10:51:37.046Z,99770.44
2023-04-19T10:54:05.207Z,99790.88
2023-04-19T10:56:34.925Z,99786.63
2023-04-19T10:59:08.259Z,99797.00
2023-04-19T11:01:40.045Z,99787.41
2023-04-19T11:04:07.751Z,99788.63
2023-04-19T11:06:34.843Z,99802.72
2023-04-19T11:09:03.352Z,99801.09
2023-04-19T11:11:30.081Z,99806.84
2023-04-19T11:13:58.144Z,99780.81
2023-04-19T11:16:38.307Z,99778.94
2023-04-19T11:19:18.939Z,99783.88
2023-04-19T11:21:46.654Z,99774.91
2023-04-19T11:24:13.514Z,99775.84
2023-04-19T11:26:40.449Z,99796.41
2023-04-19T11:29:07.285Z,99764.31
2023-04-19T11:31:34.157Z,99767.06
2023-04-19T11:34:01.319Z,99779.28
2023-04-19T11:36:28.442Z,99791.53
2023-04-19T11:38:55.249Z,99751.88
2023-04-19T11:41:22.580Z,99782.47
2023-04-19T11:43:49.329Z,99783.88
2023-04-19T11:46:16.298Z,99754.56
2023-04-19T11:48:53.542Z,99748.00
2023-04-19T11:51:20.630Z,99791.25
2023-04-19T11:53:47.463Z,99791.78
2023-04-19T11:56:15.658Z,99761.63
2023-04-19T11:58:45.146Z,99787.94
2023-04-19T12:01:13.720Z,99780.34
2023-04-19T12:03:47.496Z,99784.13
2023-04-19T12:06:33.499Z,99780.47
2023-04-19T12:09:00.386Z,99765.38
2023-04-19T12:11:45.527Z,99782.06
2023-04-19T12:14:13.856Z,99786.34
2023-04-19T12:16:41.125Z,99764.63
2023-04-19T12:19:18.659Z,99782.25
2023-04-19T12:21:46.272Z,99778.72
2023-04-19T12:24:15.448Z,99768.28
2023-04-19T12:26:56.352Z,99745.41
2023-04-19T12:29:23.288Z,99743.75
2023-04-19T12:31:50.143Z,99777.06
2023-04-19T12:34:17.083Z,99762.00
2023-04-19T12:36:43.801Z,99784.97
2023-04-19T12:39:10.574Z,99788.28
2023-04-19T12:41:37.350Z,99787.97
2023-04-19T12:44:04.211Z,99762.25
2023-04-19T12:46:31.104Z,99793.09
2023-04-19T12:48:58.069Z,99793.31
2023-04-19T12:51:24.871Z,99789.53
2023-04-19T12:53:52.433Z,99744.41
2023-04-19T12:56:19.380Z,99776.94
2023-04-19T12:58:46.689Z,99796.81
2023-04-19T13:01:13.628Z,99747.78
2023-04-19T13:03:40.795Z,99799.38
2023-04-19T13:06:07.829Z,99785.34
2023-04-19T13:08:44.804Z,99792.38
2023-04-19T13:11:13.692Z,99792.44
2023-04-19T13:13:40.436Z,99797.88
2023-04-19T13:16:08.079Z,99800.09
2023-04-19T13:18:35.367Z,99796.31
2023-04-19T13:21:02.125Z,99784.75
2023-04-19T13:23:28.865Z,99791.41
2023-04-19T13:25:55.972Z,99803.19
2023-04-19T13:28:22.763Z,99802.91
2023-04-19T13:30:49.529Z,99792.09
2023-04-19T13:33:16.494Z,99808.22
2023-04-19T13:35:45.096Z,99809.19
2023-04-19T13:38:11.901Z,99804.78
2023-04-19T13:40:38.710Z,99809.81
2023-04-19T13:43:05.464Z,99802.13
2023-04-19T13:45:32.685Z,99791.09
2023-04-19T13:47:59.465Z,99808.47
2023-04-19T13:50:26.289Z,99810.75
2023-04-19T13:52:53.224Z,99784.00
2023-04-19T13:55:20.089Z,99807.97
2023-04-19T13:57:46.836Z,99750.69
2023-04-19T14:00:14.332Z,99784.03
2023-04-19T14:02:42.339Z,99805.16
2023-04-19T14:05:09.700Z,99747.50
2023-04-19T14:07:37.166Z,99789.84
2023-04-19T14:10:04.220Z,99800.16
2023-04-19T14:12:31.112Z,99771.38
2023-04-19T14:14:57.917Z,99813.47
2023-04-19T14:17:24.861Z,99809.34
2023-04-19T14:19:51.621Z,99803.16
2023-04-19T14:22:18.512Z,99774.44
2023-04-19T14:24:46.440Z,99781.06
2023-04-19T14:27:13.286Z,99803.19
2023-04-19T14:29:40.158Z,99756.81
2023-04-19T14:32:21.315Z,99780.13
2023-04-19T14:34:51.594Z,99785.13
2023-04-19T14:37:18.922Z,99767.00
2023-04-19T14:39:46.160Z,99776.78
2023-04-19T14:42:13.094Z,99746.59
2023-04-19T14:44:40.706Z,99787.59
2023-04-19T14:47:07.805Z,99740.28
2023-04-19T14:49:34.700Z,99741.78
2023-04-19T14:52:01.529Z,99798.47
2023-04-19T14:54:28.322Z,99796.00
2023-04-19T14:56:55.301Z,99793.53
2023-04-19T14:59:22.202Z,99773.78
2023-04-19T15:01:49.122Z,99781.84
2023-04-19T15:04:16.651Z,99790.78
2023-04-19T15:06:43.595Z,99776.31
2023-04-19T15:09:10.596Z,99775.09
2023-04-19T15:11:37.431Z,99785.53
2023-04-19T15:14:04.189Z,99746.91
2023-04-19T15:16:31.660Z,99764.94
2023-04-19T15:18:58.704Z,99769.69
2023-04-19T15:21:25.502Z,99779.97
2023-04-19T15:23:52.355Z,99784.09
2023-04-19T15:26:19.153Z,99771.06
2023-04-19T15:28:46.049Z,99799.03
2023-04-19T15:31:13.060Z,99786.16
2023-04-19T15:33:40.121Z,99791.63
2023-04-19T15:36:07.164Z,99785.94
2023-04-19T15:38:34.023Z,99799.72
2023-04-19T15:41:04.064Z,99775.09
2023-04-19T15:43:30.857Z,99789.38
2023-04-19T15:45:57.706Z,99770.00
2023-04-19T15:48:24.573Z,99789.69
2023-04-19T15:50:51.376Z,99780.69
2023-04-19T15:53:18.351Z,99797.47
2023-04-19T15:55:47.049Z,99792.88
2023-04-19T15:58:13.926Z,99784.19
2023-04-19T16:00:41.035Z,99795.22
2023-04-19T16:03:09.762Z,99794.75
2023-04-19T16:05:36.621Z,99799.16
2023-04-19T16:08:09.628Z,99799.53
2023-04-19T16:10:36.394Z,99794.59
2023-04-19T16:13:06.331Z,99788.09
2023-04-19T16:15:34.119Z,99777.41
2023-04-19T16:18:01.265Z,99798.81
2023-04-19T16:20:28.290Z,99802.03
2023-04-19T16:22:58.186Z,99765.06
2023-04-19T16:25:24.984Z,99780.31
2023-04-19T16:27:52.171Z,99788.56
2023-04-19T16:30:18.972Z,99789.38
2023-04-19T16:32:45.808Z,99782.44
2023-04-19T16:35:12.713Z,99752.56
2023-04-19T16:37:39.523Z,99787.22
2023-04-19T16:40:10.872Z,99792.88
2023-04-19T16:42:38.598Z,99790.34
2023-04-19T16:45:06.478Z,99780.63
2023-04-19T16:47:33.875Z,99751.75
2023-04-19T16:50:01.141Z,99757.88
2023-04-19T16:52:28.781Z,99780.97
2023-04-19T16:54:55.629Z,99784.22
2023-04-19T16:57:23.364Z,99785.41
2023-04-19T16:59:50.195Z,99794.28
2023-04-19T17:02:17.083Z,99792.63
2023-04-19T17:04:44.289Z,99787.31
2023-04-19T17:07:11.737Z,99786.50
2023-04-19T17:09:38.526Z,99785.69
2023-04-19T17:12:05.890Z,99768.03
2023-04-19T17:14:34.163Z,99776.34
2023-04-19T17:17:01.649Z,99784.03
2023-04-19T17:19:28.527Z,99787.69
2023-04-19T17:21:55.672Z,99794.19
2023-04-19T17:24:22.576Z,99755.91
2023-04-19T17:26:50.384Z,99796.59
2023-04-19T17:29:17.371Z,99783.13
2023-04-19T17:31:44.434Z,99779.03
2023-04-19T17:34:11.409Z,99752.16
2023-04-19T17:36:38.138Z,99785.81
2023-04-19T17:39:06.841Z,99772.72
2023-04-19T17:41:34.148Z,99783.72
2023-04-19T17:44:00.895Z,99788.09
2023-04-19T17:46:27.734Z,99777.31
2023-04-19T17:48:55.590Z,99795.72
2023-04-19T17:51:22.507Z,99796.44
2023-04-19T17:53:49.454Z,99777.78
2023-04-19T17:56:16.200Z,99799.91
2023-04-19T17:58:42.912Z,99789.31
2023-04-19T18:01:10.718Z,99801.38
2023-04-19T18:03:38.414Z,99790.75
2023-04-19T18:06:06.155Z,99785.81
2023-04-19T18:08:33.048Z,99786.81
2023-04-19T18:10:59.764Z,99789.66
2023-04-19T18:13:26.713Z,99768.78
2023-04-19T18:15:53.660Z,99791.66
2023-04-19T18:18:20.501Z,99793.19
2023-04-19T18:20:47.263Z,99798.69
2023-04-19T18:23:14.155Z,99805.84
2023-04-19T18:25:41.011Z,99794.34
2023-04-19T18:28:07.770Z,99809.34
2023-04-19T18:30:36.035Z,99816.34
2023-04-19T18:33:02.863Z,99822.19
2023-04-19T18:35:29.884Z,99819.59
2023-04-19T18:37:56.814Z,99825.88
2023-04-19T18:40:23.568Z,99826.84
2023-04-19T18:42:50.569Z,99798.81
2023-04-19T18:45:18.036Z,99837.03
2023-04-19T18:47:44.864Z,99844.22
2023-04-19T18:50:12.217Z,99857.06
2023-04-19T18:52:39.065Z,99832.69
2023-04-19T18:55:06.344Z,99842.59
2023-04-19T18:57:34.418Z,99852.50
2023-04-19T19:00:01.774Z,99817.88
2023-04-19T19:02:28.663Z,99838.63
2023-04-19T19:05:01.361Z,99854.63
2023-04-19T19:10:01.742Z,99822.22
2023-04-19T19:12:30.887Z,99867.84
2023-04-19T19:14:57.614Z,99838.50
2023-04-19T19:17:28.010Z,99871.28
2023-04-19T19:19:55.253Z,99867.88
2023-04-19T19:22:27.454Z,99843.34
2023-04-19T19:24:55.370Z,99852.28
2023-04-19T19:27:22.113Z,99878.47
2023-04-19T19:29:48.952Z,99873.28
2023-04-19T19:32:16.154Z,99829.75
2023-04-19T19:34:54.744Z,99881.03
2023-04-19T19:37:23.179Z,99854.00
2023-04-19T19:39:52.240Z,99879.13
2023-04-19T19:42:19.364Z,99790.31
2023-04-19T19:44:46.282Z,99895.59
2023-04-19T19:47:13.509Z,99896.31
2023-04-19T19:49:55.213Z,99887.94
2023-04-19T19:52:32.056Z,99895.13
2023-04-19T19:54:59.691Z,99883.19
2023-04-19T20:00:12.941Z,99821.19
2023-04-19T20:02:55.016Z,99874.00
2023-04-19T20:05:23.935Z,99905.03
2023-04-19T20:10:20.656Z,99902.56
2023-04-19T20:12:47.452Z,99911.75
2023-04-19T20:15:14.375Z,99912.44
2023-04-19T20:17:41.575Z,99910.22
2023-04-19T20:20:09.306Z,99915.88
2023-04-19T20:22:36.286Z,99946.06
2023-04-19T20:25:03.111Z,99911.38
2023-04-19T20:27:29.953Z,99971.50
2023-04-19T20:29:56.928Z,99969.38
2023-04-19T20:32:23.970Z,99969.69
2023-04-19T20:34:52.188Z,99957.66
2023-04-19T20:37:19.103Z,99975.72
2023-04-19T20:39:45.990Z,99998.66
2023-04-19T20:42:12.805Z,99992.88
2023-04-19T20:44:39.574Z,100006.78
2023-04-19T20:47:06.414Z,99987.13
2023-04-19T20:49:33.375Z,100016.91
2023-04-19T20:52:00.160Z,100010.09
2023-04-19T20:54:27.144Z,99954.03
2023-04-19T20:56:54.254Z,100011.13
2023-04-19T20:59:20.984Z,100023.53
2023-04-19T21:01:47.936Z,99981.69
2023-04-19T21:04:14.941Z,100012.72
2023-04-19T21:06:41.868Z,99986.47
2023-04-19T21:09:08.831Z,100021.88
2023-04-19T21:11:35.624Z,100033.16
2023-04-19T21:14:02.446Z,99993.28
2023-04-19T21:16:29.277Z,100031.53
2023-04-19T21:18:56.184Z,100014.03
2023-04-19T21:21:23.007Z,100038.81
2023-04-19T21:23:49.750Z,99989.59
2023-04-19T21:26:16.597Z,100033.16
2023-04-19T21:28:43.564Z,100023.09
2023-04-19T21:31:10.359Z,99986.69
2023-04-19T21:33:37.153Z,99977.56
2023-04-19T21:36:04.383Z,100015.63
2023-04-19T21:38:31.338Z,99983.34
2023-04-19T21:40:58.057Z,100006.28
2023-04-19T21:43:25.030Z,100002.50
2023-04-19T21:45:51.751Z,100016.84
2023-04-19T21:48:18.494Z,99988.25
2023-04-19T21:50:45.451Z,100025.47
2023-04-19T21:53:12.185Z,100020.63
2023-04-19T21:55:38.984Z,99968.69
2023-04-19T21:58:06.063Z,99917.50
2023-04-19T22:00:32.868Z,99977.84
2023-04-19T22:02:59.975Z,99918.78
2023-04-19T22:05:27.032Z,99992.50
2023-04-19T22:07:55.084Z,100009.97
2023-04-19T22:10:22.750Z,99992.19
2023-04-19T22:12:57.904Z,99952.47
2023-04-19T22:15:26.055Z,99977.44
2023-04-19T22:17:53.116Z,99937.81
2023-04-19T22:20:20.147Z,99945.81
2023-04-19T22:22:46.960Z,99963.50
2023-04-19T22:25:14.030Z,100009.47
2023-04-19T22:27:40.799Z,100012.94
2023-04-19T22:30:08.038Z,99999.34
2023-04-19T22:32:35.027Z,99944.97
2023-04-19T22:35:01.809Z,100009.97
2023-04-19T22:37:28.648Z,100003.13
2023-04-19T22:39:55.532Z,100000.59
2023-04-19T22:42:22.342Z,100004.19
2023-04-19T22:44:49.095Z,100024.69
2023-04-19T22:47:16.644Z,100015.19
2023-04-19T22:49:43.636Z,100024.63
2023-04-19T22:52:11.500Z,100018.28
2023-04-19T22:54:38.538Z,100032.06
2023-04-19T22:57:05.325Z,99969.38
2023-04-19T22:59:32.090Z,100016.34
2023-04-19T23:01:59.014Z,100019.31
2023-04-19T23:04:25.843Z,99997.34
2023-04-19T23:06:53.868Z,100031.94
2023-04-19T23:09:20.880Z,100026.78
2023-04-19T23:11:48.996Z,99981.44
2023-04-19T23:14:18.596Z,100029.38
2023-04-19T23:16:47.167Z,100011.25
2023-04-19T23:19:15.312Z,100014.09
2023-04-19T23:21:42.180Z,100007.59
2023-04-19T23:24:09.727Z,100006.28
2023-04-19T23:26:36.560Z,99994.16
2023-04-19T23:29:03.514Z,99997.31
2023-04-19T23:31:30.536Z,99988.84
2023-04-19T23:33:57.289Z,99986.03
2023-04-19T23:36:24.087Z,99981.19
2023-04-19T23:38:50.986Z,99970.69
2023-04-19T23:41:17.929Z,99965.28
2023-04-19T23:43:46.485Z,99927.25
2023-04-19T23:46:13.514Z,99951.69
2023-04-19T23:48:40.471Z,99965.16
2023-04-19T23:51:07.221Z,99910.47
2023-04-19T23:53:34.193Z,99956.47
2023-04-19T23:56:01.053Z,99955.94
2023-04-19T23:58:27.784Z,99945.81
